EHGG Airport Information

Runway Information
Runway 01 Length 4922 ft width 148 ft
Elevation 16 ft Threshold 0 ft Heading 9
Runway 19 Length 4922 ft Width 148 ft
Elevation 12 ft Threshold 0 ft Heading 189
Runway 05 Length 8202 ft width 148 ft
Elevation 13 ft Threshold 0 ft Heading 52
Runway 23 Length 8202 ft Width 148 ft
Elevation 13 ft Threshold 0 ft Heading 232
Airport Frequencies
Type APP Name APP Frequency 120.3 MHZ
Type ATIS Name ATIS Frequency 133.55 MHZ
Type GCCD Name GND/CLNC D Frequency 121.7 MHZ
Type TWR Name TWR Frequency 118.7 MHZ
Airport Navaids
Type VOR-DME Name Eelde Frequency 112400 KHZ
Type NDB Name Eelde Frequency 330 KHZ
Airport Weather Information & NOTAM
ADDS - METARS form results

(1940 UTC 17 October 2021)
Data provider http://aviationweather.gov/metar/data/
 
METAR text: EHGG 171925Z AUTO 21009KT 9999 FEW019CB 12/07 Q1019 BECMG NSC
Conditions at: EHGG (GRONINGEN/EELDE , NL) observed 1925 UTC 17 October 2021
Temperature: 12.0°C (54°F)
Dewpoint: 7.0°C (45°F) [RH = 71%]
Pressure (altimeter): 30.09 inches Hg (1019.0 mb)
Winds: from the SSW (210 degrees) at 10 MPH (9 knots; 4.6 m/s)
Visibility: 6 or more miles (10+ km)
Ceiling: at least 12,000 feet AGL
Clouds: few clouds at 1900 feet AGL
Weather: no significant weather observed at this time

METAR text: EHGG 171855Z AUTO 20010KT 170V230 9999 -RA FEW016CB 11/07 Q1019 BECMG NSC
Conditions at: EHGG (GRONINGEN/EELDE , NL) observed 1855 UTC 17 October 2021
Temperature: 11.0°C (52°F)
Dewpoint: 7.0°C (45°F) [RH = 76%]
Pressure (altimeter): 30.09 inches Hg (1019.0 mb)
Winds: from the SSW (200 degrees) at 12 MPH (10 knots; 5.1 m/s)
Visibility: 6 or more miles (10+ km)
Ceiling: at least 12,000 feet AGL
Clouds: few clouds at 1600 feet AGL
Weather: -RA  (light rain)

Forecast for: EHGG (GRONINGEN/EELDE , NL)
Text: TAF EHGG 171702Z 1718/1824 20008KT CAVOK
Forecast period: 1800 UTC 17 October 2021 to 0000 UTC 19 October 2021
Forecast type: FROM: standard forecast or significant change
Winds: from the SSW (200 degrees) at 9 MPH (8 knots; 4.1 m/s)
Visibility: 6 or more miles (10+ km)
Ceiling: unknown
Clouds: missing
Weather: NSW  (no significant weather)